Terminal Aerodrome Forecast
Issued by NWS

Home | Current Version | Previous Version | Text Only | Print | Product List | Glossary On
Versions: 1 2 3 4 5 6 7 8 9 10 11 12 13
558
FTUS44 KLIX 280520
TAFGPT
TAF
KGPT 280520Z 2806/2906 00000KT P6SM SKC
     FM281600 08009KT P6SM VCSH SCT040
     FM281800 11011KT P6SM BKN110
     FM282300 10007KT P6SM OVC200=

USA.gov is the U.S. government's official web portal to all federal, state and local government web resources and services.